Hidrolandia, Brazil
Current Conditions -  °F | °C
As of 11:00 AM on Sunday 21 Dec 2014 (Local Time) from SBGO Reporting Station
Broken Clouds Broken Clouds  
Wind Chill: 75°   Ceiling: 7000
Heat Index: 75°   Visibility: 6mi
Dew Point: 66°   Wind: 10mph
Humidity: 73%   Direction: 310°NW
Pressure: 30.06"   Gusts: NA
Location:  16.96°S, 49.23°W
Report Text: SBGO 211300Z 31009KT 9999 SCT013 BKN070 24/19 Q1018
Loading
Personal Weather Stations






























Interactive Weather Map New forecast layout! Learn more

10-Day Weather Forecast

Advertisements
Track Severe Weather on mobile